sensor_id;sensor_type;location;lat;lon;timestamp;temperature;humidity
26272;DHT22;13997;48.902;12.472;2023-03-14T00:02:09;205.50;2252.80
26272;DHT22;13997;48.902;12.472;2023-03-14T00:04:35;205.50;2252.80
26272;DHT22;13997;48.902;12.472;2023-03-14T00:07:01;205.50;2252.80
26272;DHT22;13997;48.902;12.472;2023-03-14T00:09:26;205.50;2252.80
26272;DHT22;13997;48.902;12.472;2023-03-14T00:11:53;205.40;2252.80
26272;DHT22;13997;48.902;12.472;2023-03-14T00:14:19;205.40;2252.80
26272;DHT22;13997;48.902;12.472;2023-03-14T00:16:48;205.40;2252.80
26272;DHT22;13997;48.902;12.472;2023-03-14T00:19:13;205.30;2252.80
26272;DHT22;13997;48.902;12.472;2023-03-14T00:21:39;205.30;2252.80
26272;DHT22;13997;48.902;12.472;2023-03-14T00:24:05;205.20;2252.80
26272;DHT22;13997;48.902;12.472;2023-03-14T00:26:31;205.20;2252.80
26272;DHT22;13997;48.902;12.472;2023-03-14T00:28:57;205.20;2252.80
26272;DHT22;13997;48.902;12.472;2023-03-14T00:31:23;205.20;2252.80
26272;DHT22;13997;48.902;12.472;2023-03-14T00:33:48;205.20;2252.80
26272;DHT22;13997;48.902;12.472;2023-03-14T00:36:17;205.30;2252.80
26272;DHT22;13997;48.902;12.472;2023-03-14T00:38:44;205.20;2252.80
26272;DHT22;13997;48.902;12.472;2023-03-14T00:41:13;205.10;2252.80
26272;DHT22;13997;48.902;12.472;2023-03-14T00:43:38;205.10;2252.80
26272;DHT22;13997;48.902;12.472;2023-03-14T00:46:04;205.10;2252.80
26272;DHT22;13997;48.902;12.472;2023-03-14T00:48:30;205.10;2252.80
26272;DHT22;13997;48.902;12.472;2023-03-14T00:50:56;205.10;2252.80
26272;DHT22;13997;48.902;12.472;2023-03-14T00:53:22;205.10;2252.80
26272;DHT22;13997;48.902;12.472;2023-03-14T00:55:48;205.00;2252.80
26272;DHT22;13997;48.902;12.472;2023-03-14T00:58:15;204.90;2252.80
26272;DHT22;13997;48.902;12.472;2023-03-14T01:00:42;204.90;2252.80
26272;DHT22;13997;48.902;12.472;2023-03-14T01:03:09;204.90;2252.80
26272;DHT22;13997;48.902;12.472;2023-03-14T01:05:35;204.80;2252.80
26272;DHT22;13997;48.902;12.472;2023-03-14T01:08:01;204.80;2252.80
26272;DHT22;13997;48.902;12.472;2023-03-14T01:10:26;204.80;2252.80
26272;DHT22;13997;48.902;12.472;2023-03-14T01:12:52;204.80;2252.80
26272;DHT22;13997;48.902;12.472;2023-03-14T01:15:19;204.80;2252.80
26272;DHT22;13997;48.902;12.472;2023-03-14T01:17:45;204.80;2252.80
26272;DHT22;13997;48.902;12.472;2023-03-14T01:20:13;204.80;2252.80
26272;DHT22;13997;48.902;12.472;2023-03-14T01:22:39;204.90;2252.80
26272;DHT22;13997;48.902;12.472;2023-03-14T01:25:07;204.90;2252.80
26272;DHT22;13997;48.902;12.472;2023-03-14T01:27:33;204.90;2252.80
26272;DHT22;13997;48.902;12.472;2023-03-14T01:29:59;204.90;2252.80
26272;DHT22;13997;48.902;12.472;2023-03-14T01:32:25;204.90;2252.80
26272;DHT22;13997;48.902;12.472;2023-03-14T01:34:51;204.90;2252.80
26272;DHT22;13997;48.902;12.472;2023-03-14T01:37:17;204.90;2252.80
26272;DHT22;13997;48.902;12.472;2023-03-14T01:39:42;204.90;2252.80
26272;DHT22;13997;48.902;12.472;2023-03-14T01:42:08;204.90;2252.80
26272;DHT22;13997;48.902;12.472;2023-03-14T01:44:57;205.00;2252.80
26272;DHT22;13997;48.902;12.472;2023-03-14T01:47:24;205.00;2252.80
26272;DHT22;13997;48.902;12.472;2023-03-14T01:50:07;205.10;2252.80
26272;DHT22;13997;48.902;12.472;2023-03-14T01:52:41;205.10;2252.80
26272;DHT22;13997;48.902;12.472;2023-03-14T01:55:17;205.10;2252.80
26272;DHT22;13997;48.902;12.472;2023-03-14T01:57:49;205.10;2252.80
26272;DHT22;13997;48.902;12.472;2023-03-14T02:00:18;205.10;2252.80
26272;DHT22;13997;48.902;12.472;2023-03-14T02:02:47;205.10;2252.80
26272;DHT22;13997;48.902;12.472;2023-03-14T02:05:16;205.10;2252.80
26272;DHT22;13997;48.902;12.472;2023-03-14T02:07:47;205.10;2252.80
26272;DHT22;13997;48.902;12.472;2023-03-14T02:10:15;205.00;2252.80
26272;DHT22;13997;48.902;12.472;2023-03-14T02:12:41;205.10;2252.80
26272;DHT22;13997;48.902;12.472;2023-03-14T02:15:08;205.30;2252.80
26272;DHT22;13997;48.902;12.472;2023-03-14T02:17:34;205.50;2252.80
26272;DHT22;13997;48.902;12.472;2023-03-14T02:22:44;230.50;2252.80
26272;DHT22;13997;48.902;12.472;2023-03-14T02:25:15;230.50;2252.80
26272;DHT22;13997;48.902;12.472;2023-03-14T02:27:42;230.50;2252.80
26272;DHT22;13997;48.902;12.472;2023-03-14T02:30:12;230.50;2252.80
26272;DHT22;13997;48.902;12.472;2023-03-14T02:32:41;230.60;2252.80
26272;DHT22;13997;48.902;12.472;2023-03-14T02:35:12;230.70;2252.80
26272;DHT22;13997;48.902;12.472;2023-03-14T02:37:57;230.80;2252.80
26272;DHT22;13997;48.902;12.472;2023-03-14T02:40:25;230.80;2252.80
26272;DHT22;13997;48.902;12.472;2023-03-14T02:42:51;230.90;2252.80
26272;DHT22;13997;48.902;12.472;2023-03-14T02:47:45;230.90;2252.80
26272;DHT22;13997;48.902;12.472;2023-03-14T02:50:15;230.80;2252.80
26272;DHT22;13997;48.902;12.472;2023-03-14T02:52:42;230.80;2252.80
26272;DHT22;13997;48.902;12.472;2023-03-14T02:55:08;230.80;2252.80
26272;DHT22;13997;48.902;12.472;2023-03-14T02:57:34;230.80;2252.80
26272;DHT22;13997;48.902;12.472;2023-03-14T03:00:01;230.70;2252.80
26272;DHT22;13997;48.902;12.472;2023-03-14T03:02:29;230.70;2252.80
26272;DHT22;13997;48.902;12.472;2023-03-14T03:04:54;230.70;2252.80
26272;DHT22;13997;48.902;12.472;2023-03-14T03:07:20;230.70;2252.80
26272;DHT22;13997;48.902;12.472;2023-03-14T03:09:46;230.60;2252.80
26272;DHT22;13997;48.902;12.472;2023-03-14T03:12:11;230.60;2252.80
26272;DHT22;13997;48.902;12.472;2023-03-14T03:14:37;230.60;2252.80
26272;DHT22;13997;48.902;12.472;2023-03-14T03:17:04;230.60;2252.80
26272;DHT22;13997;48.902;12.472;2023-03-14T03:19:30;230.60;2252.80
26272;DHT22;13997;48.902;12.472;2023-03-14T03:21:56;230.70;2252.80
26272;DHT22;13997;48.902;12.472;2023-03-14T03:24:22;230.60;2252.80
26272;DHT22;13997;48.902;12.472;2023-03-14T03:34:05;230.60;2252.80
26272;DHT22;13997;48.902;12.472;2023-03-14T03:36:31;230.60;2252.80
26272;DHT22;13997;48.902;12.472;2023-03-14T03:38:57;230.60;2252.80
26272;DHT22;13997;48.902;12.472;2023-03-14T03:41:22;230.60;2252.80
26272;DHT22;13997;48.902;12.472;2023-03-14T03:43:48;230.60;2252.80
26272;DHT22;13997;48.902;12.472;2023-03-14T03:46:13;230.50;2252.80
26272;DHT22;13997;48.902;12.472;2023-03-14T03:48:39;230.60;2252.80
26272;DHT22;13997;48.902;12.472;2023-03-14T03:51:06;230.60;2252.80
26272;DHT22;13997;48.902;12.472;2023-03-14T03:53:31;230.60;2252.80
26272;DHT22;13997;48.902;12.472;2023-03-14T03:55:57;230.60;2252.80
26272;DHT22;13997;48.902;12.472;2023-03-14T03:58:22;230.60;2252.80
26272;DHT22;13997;48.902;12.472;2023-03-14T04:00:48;230.60;2252.80
26272;DHT22;13997;48.902;12.472;2023-03-14T04:03:13;230.60;2252.80
26272;DHT22;13997;48.902;12.472;2023-03-14T04:05:39;230.60;2252.80
26272;DHT22;13997;48.902;12.472;2023-03-14T04:08:05;230.60;2252.80
26272;DHT22;13997;48.902;12.472;2023-03-14T04:10:34;230.60;2252.80
26272;DHT22;13997;48.902;12.472;2023-03-14T04:13:00;230.60;2252.80
26272;DHT22;13997;48.902;12.472;2023-03-14T04:15:25;230.50;2252.80
26272;DHT22;13997;48.902;12.472;2023-03-14T04:17:51;230.50;2252.80
26272;DHT22;13997;48.902;12.472;2023-03-14T04:20:16;230.60;2252.80
26272;DHT22;13997;48.902;12.472;2023-03-14T04:22:42;230.60;2252.80
26272;DHT22;13997;48.902;12.472;2023-03-14T04:25:08;230.60;2252.80
26272;DHT22;13997;48.902;12.472;2023-03-14T04:27:33;230.60;2252.80
26272;DHT22;13997;48.902;12.472;2023-03-14T04:29:59;230.60;2252.80
26272;DHT22;13997;48.902;12.472;2023-03-14T04:32:24;230.50;2252.80
26272;DHT22;13997;48.902;12.472;2023-03-14T04:34:50;230.50;2252.80
26272;DHT22;13997;48.902;12.472;2023-03-14T04:37:16;230.60;2252.80
26272;DHT22;13997;48.902;12.472;2023-03-14T04:39:41;230.60;2252.80
26272;DHT22;13997;48.902;12.472;2023-03-14T04:42:07;230.50;2252.80
26272;DHT22;13997;48.902;12.472;2023-03-14T04:44:32;230.50;2252.80
26272;DHT22;13997;48.902;12.472;2023-03-14T04:46:58;230.50;2252.80
26272;DHT22;13997;48.902;12.472;2023-03-14T04:49:23;230.50;2252.80
26272;DHT22;13997;48.902;12.472;2023-03-14T04:51:49;230.40;2252.80
26272;DHT22;13997;48.902;12.472;2023-03-14T04:54:18;230.40;2252.80
26272;DHT22;13997;48.902;12.472;2023-03-14T04:56:44;230.40;2252.80
26272;DHT22;13997;48.902;12.472;2023-03-14T04:59:09;205.70;2252.80
26272;DHT22;13997;48.902;12.472;2023-03-14T05:01:35;205.70;2252.80
26272;DHT22;13997;48.902;12.472;2023-03-14T05:04:01;205.70;2252.80
26272;DHT22;13997;48.902;12.472;2023-03-14T05:06:27;205.70;2252.80
26272;DHT22;13997;48.902;12.472;2023-03-14T05:08:52;205.70;2252.80
26272;DHT22;13997;48.902;12.472;2023-03-14T05:11:18;205.60;2252.80
26272;DHT22;13997;48.902;12.472;2023-03-14T05:13:44;205.60;2252.80
26272;DHT22;13997;48.902;12.472;2023-03-14T05:16:11;205.60;2252.80
26272;DHT22;13997;48.902;12.472;2023-03-14T05:18:37;205.60;2252.80
26272;DHT22;13997;48.902;12.472;2023-03-14T05:21:03;205.60;2252.80
26272;DHT22;13997;48.902;12.472;2023-03-14T05:23:29;205.60;2252.80
26272;DHT22;13997;48.902;12.472;2023-03-14T05:25:55;205.60;2252.80
26272;DHT22;13997;48.902;12.472;2023-03-14T05:28:20;205.60;2252.80
26272;DHT22;13997;48.902;12.472;2023-03-14T05:30:46;205.60;2252.80
26272;DHT22;13997;48.902;12.472;2023-03-14T05:33:12;205.50;2252.80
26272;DHT22;13997;48.902;12.472;2023-03-14T05:35:37;205.50;2252.80
26272;DHT22;13997;48.902;12.472;2023-03-14T05:38:03;205.50;2252.80
26272;DHT22;13997;48.902;12.472;2023-03-14T05:40:29;205.50;2252.80
26272;DHT22;13997;48.902;12.472;2023-03-14T05:42:54;205.50;2252.80
26272;DHT22;13997;48.902;12.472;2023-03-14T05:45:20;205.40;2252.80
26272;DHT22;13997;48.902;12.472;2023-03-14T05:47:45;205.40;2252.80
26272;DHT22;13997;48.902;12.472;2023-03-14T05:50:11;205.40;2252.80
26272;DHT22;13997;48.902;12.472;2023-03-14T05:52:37;205.40;2252.80
26272;DHT22;13997;48.902;12.472;2023-03-14T05:55:03;205.40;2252.80
26272;DHT22;13997;48.902;12.472;2023-03-14T05:57:29;205.40;2252.80
26272;DHT22;13997;48.902;12.472;2023-03-14T05:59:55;205.40;2252.80
26272;DHT22;13997;48.902;12.472;2023-03-14T06:02:21;205.40;2252.80
26272;DHT22;13997;48.902;12.472;2023-03-14T06:04:46;205.30;2252.80
26272;DHT22;13997;48.902;12.472;2023-03-14T06:07:12;205.30;2252.80
26272;DHT22;13997;48.902;12.472;2023-03-14T06:09:37;205.30;2252.80
26272;DHT22;13997;48.902;12.472;2023-03-14T06:12:05;205.40;2252.80
26272;DHT22;13997;48.902;12.472;2023-03-14T06:14:32;205.30;2252.80
26272;DHT22;13997;48.902;12.472;2023-03-14T06:16:57;205.40;2252.80
26272;DHT22;13997;48.902;12.472;2023-03-14T06:19:25;205.40;2252.80
26272;DHT22;13997;48.902;12.472;2023-03-14T06:21:51;205.40;2252.80
26272;DHT22;13997;48.902;12.472;2023-03-14T06:24:16;205.50;2252.80
26272;DHT22;13997;48.902;12.472;2023-03-14T06:26:42;205.50;2252.80
26272;DHT22;13997;48.902;12.472;2023-03-14T06:29:08;205.50;2252.80
26272;DHT22;13997;48.902;12.472;2023-03-14T06:31:34;205.60;2252.80
26272;DHT22;13997;48.902;12.472;2023-03-14T06:33:59;205.60;2252.80
26272;DHT22;13997;48.902;12.472;2023-03-14T06:36:25;205.60;2252.80
26272;DHT22;13997;48.902;12.472;2023-03-14T06:38:51;205.60;2252.80
26272;DHT22;13997;48.902;12.472;2023-03-14T06:41:16;205.60;2252.80
26272;DHT22;13997;48.902;12.472;2023-03-14T06:43:42;205.60;2252.80
26272;DHT22;13997;48.902;12.472;2023-03-14T06:46:08;205.60;2252.80
26272;DHT22;13997;48.902;12.472;2023-03-14T06:48:33;205.60;2252.80
26272;DHT22;13997;48.902;12.472;2023-03-14T06:50:59;205.70;2252.80
26272;DHT22;13997;48.902;12.472;2023-03-14T06:53:24;205.70;2252.80
26272;DHT22;13997;48.902;12.472;2023-03-14T06:55:50;205.70;2252.80
26272;DHT22;13997;48.902;12.472;2023-03-14T06:58:16;230.40;2252.80
26272;DHT22;13997;48.902;12.472;2023-03-14T07:00:42;230.40;2252.80
26272;DHT22;13997;48.902;12.472;2023-03-14T07:03:08;230.40;2252.80
26272;DHT22;13997;48.902;12.472;2023-03-14T07:05:34;230.40;2252.80
26272;DHT22;13997;48.902;12.472;2023-03-14T07:07:59;230.50;2252.80
26272;DHT22;13997;48.902;12.472;2023-03-14T07:10:25;230.50;2252.80
26272;DHT22;13997;48.902;12.472;2023-03-14T07:12:50;230.50;2252.80
26272;DHT22;13997;48.902;12.472;2023-03-14T07:15:17;230.60;2252.80
26272;DHT22;13997;48.902;12.472;2023-03-14T07:17:43;230.60;2252.80
26272;DHT22;13997;48.902;12.472;2023-03-14T07:20:09;230.70;2252.80
26272;DHT22;13997;48.902;12.472;2023-03-14T07:22:35;230.80;2252.80
26272;DHT22;13997;48.902;12.472;2023-03-14T07:25:00;230.80;2252.80
26272;DHT22;13997;48.902;12.472;2023-03-14T07:27:26;230.80;2252.80
26272;DHT22;13997;48.902;12.472;2023-03-14T07:29:52;230.90;2252.80
26272;DHT22;13997;48.902;12.472;2023-03-14T07:32:17;231.00;2252.80
26272;DHT22;13997;48.902;12.472;2023-03-14T07:34:43;231.10;2252.80
26272;DHT22;13997;48.902;12.472;2023-03-14T07:37:09;231.10;2252.80
26272;DHT22;13997;48.902;12.472;2023-03-14T07:39:35;231.20;2252.80
26272;DHT22;13997;48.902;12.472;2023-03-14T07:42:00;231.20;2252.80
26272;DHT22;13997;48.902;12.472;2023-03-14T07:44:26;231.30;2252.80
26272;DHT22;13997;48.902;12.472;2023-03-14T07:46:52;256.00;2252.80
26272;DHT22;13997;48.902;12.472;2023-03-14T07:49:18;256.00;2252.80
26272;DHT22;13997;48.902;12.472;2023-03-14T07:51:43;256.00;2252.80
26272;DHT22;13997;48.902;12.472;2023-03-14T07:54:10;256.10;2252.80
26272;DHT22;13997;48.902;12.472;2023-03-14T07:56:36;256.20;2252.80
26272;DHT22;13997;48.902;12.472;2023-03-14T07:59:01;256.20;2252.80
26272;DHT22;13997;48.902;12.472;2023-03-14T08:01:28;256.20;2252.80
26272;DHT22;13997;48.902;12.472;2023-03-14T08:03:54;256.20;2252.80
26272;DHT22;13997;48.902;12.472;2023-03-14T08:06:20;256.20;2252.80
26272;DHT22;13997;48.902;12.472;2023-03-14T08:08:45;256.20;2252.80
26272;DHT22;13997;48.902;12.472;2023-03-14T08:11:11;256.10;2252.80
26272;DHT22;13997;48.902;12.472;2023-03-14T08:13:37;256.20;2252.80
26272;DHT22;13997;48.902;12.472;2023-03-14T08:16:03;256.20;2252.80
26272;DHT22;13997;48.902;12.472;2023-03-14T08:18:29;256.20;2252.80
26272;DHT22;13997;48.902;12.472;2023-03-14T08:20:55;256.20;2252.80
26272;DHT22;13997;48.902;12.472;2023-03-14T08:23:21;256.20;2252.80
26272;DHT22;13997;48.902;12.472;2023-03-14T08:25:51;256.20;2252.80
26272;DHT22;13997;48.902;12.472;2023-03-14T08:28:17;256.20;2252.80
26272;DHT22;13997;48.902;12.472;2023-03-14T08:30:43;256.10;2252.80
26272;DHT22;13997;48.902;12.472;2023-03-14T08:33:09;256.10;2252.80
26272;DHT22;13997;48.902;12.472;2023-03-14T08:35:35;256.20;2252.80
26272;DHT22;13997;48.902;12.472;2023-03-14T08:38:02;256.20;2252.80
26272;DHT22;13997;48.902;12.472;2023-03-14T08:40:28;256.20;2252.80
26272;DHT22;13997;48.902;12.472;2023-03-14T08:42:53;256.30;2252.80
26272;DHT22;13997;48.902;12.472;2023-03-14T08:45:19;256.30;2252.80
26272;DHT22;13997;48.902;12.472;2023-03-14T08:47:45;256.40;2252.80
26272;DHT22;13997;48.902;12.472;2023-03-14T08:50:11;256.50;2252.80
26272;DHT22;13997;48.902;12.472;2023-03-14T08:52:37;256.70;2252.80
26272;DHT22;13997;48.902;12.472;2023-03-14T08:55:06;256.70;2252.80
26272;DHT22;13997;48.902;12.472;2023-03-14T08:57:32;256.90;2252.80
26272;DHT22;13997;48.902;12.472;2023-03-14T08:59:58;281.60;2278.40
26272;DHT22;13997;48.902;12.472;2023-03-14T09:02:25;281.70;2278.40
26272;DHT22;13997;48.902;12.472;2023-03-14T09:04:50;281.90;2278.40
26272;DHT22;13997;48.902;12.472;2023-03-14T09:07:17;282.00;2278.40
26272;DHT22;13997;48.902;12.472;2023-03-14T09:09:42;282.10;2278.40
26272;DHT22;13997;48.902;12.472;2023-03-14T09:12:08;282.20;2278.40
26272;DHT22;13997;48.902;12.472;2023-03-14T09:14:34;282.30;2278.40
26272;DHT22;13997;48.902;12.472;2023-03-14T09:16:59;282.40;2278.40
26272;DHT22;13997;48.902;12.472;2023-03-14T09:19:25;282.50;2278.40
26272;DHT22;13997;48.902;12.472;2023-03-14T09:21:51;282.50;2278.40
26272;DHT22;13997;48.902;12.472;2023-03-14T09:24:17;282.50;2278.40
26272;DHT22;13997;48.902;12.472;2023-03-14T09:26:43;307.20;2304.00
26272;DHT22;13997;48.902;12.472;2023-03-14T09:29:09;307.20;2304.00
26272;DHT22;13997;48.902;12.472;2023-03-14T09:31:34;307.20;2304.00
26272;DHT22;13997;48.902;12.472;2023-03-14T09:34:00;307.20;2304.00
26272;DHT22;13997;48.902;12.472;2023-03-14T09:36:26;307.20;2304.00
26272;DHT22;13997;48.902;12.472;2023-03-14T09:38:52;307.20;2304.00
26272;DHT22;13997;48.902;12.472;2023-03-14T09:41:25;307.20;2304.00
26272;DHT22;13997;48.902;12.472;2023-03-14T09:44:14;307.30;2304.00
26272;DHT22;13997;48.902;12.472;2023-03-14T09:46:41;307.30;2304.00
26272;DHT22;13997;48.902;12.472;2023-03-14T09:49:16;307.40;2304.00
26272;DHT22;13997;48.902;12.472;2023-03-14T09:51:47;307.50;2304.00
26272;DHT22;13997;48.902;12.472;2023-03-14T09:54:46;307.50;2304.00
26272;DHT22;13997;48.902;12.472;2023-03-14T09:57:15;307.50;2304.00
26272;DHT22;13997;48.902;12.472;2023-03-14T09:59:44;307.60;2304.00
26272;DHT22;13997;48.902;12.472;2023-03-14T10:04:43;307.70;2304.00
26272;DHT22;13997;48.902;12.472;2023-03-14T10:07:15;307.80;2304.00
26272;DHT22;13997;48.902;12.472;2023-03-14T10:09:44;307.80;2304.00
26272;DHT22;13997;48.902;12.472;2023-03-14T10:12:10;307.80;2304.00
26272;DHT22;13997;48.902;12.472;2023-03-14T10:14:37;307.80;2304.00
26272;DHT22;13997;48.902;12.472;2023-03-14T10:17:13;307.80;2304.00
26272;DHT22;13997;48.902;12.472;2023-03-14T10:19:54;307.80;2304.00
26272;DHT22;13997;48.902;12.472;2023-03-14T10:22:22;307.80;2304.00
26272;DHT22;13997;48.902;12.472;2023-03-14T10:25:03;307.80;2304.00
26272;DHT22;13997;48.902;12.472;2023-03-14T10:27:31;308.00;2304.00
26272;DHT22;13997;48.902;12.472;2023-03-14T10:30:08;332.80;2329.60
26272;DHT22;13997;48.902;12.472;2023-03-14T10:32:51;332.90;2329.60
26272;DHT22;13997;48.902;12.472;2023-03-14T10:35:18;333.00;2329.60
26272;DHT22;13997;48.902;12.472;2023-03-14T10:37:55;333.10;2329.60
26272;DHT22;13997;48.902;12.472;2023-03-14T10:40:31;333.30;2329.60
26272;DHT22;13997;48.902;12.472;2023-03-14T10:43:00;333.40;2329.60
26272;DHT22;13997;48.902;12.472;2023-03-14T10:45:44;333.60;2329.60
26272;DHT22;13997;48.902;12.472;2023-03-14T10:48:33;358.50;2329.60
26272;DHT22;13997;48.902;12.472;2023-03-14T10:53:41;358.50;2329.60
26272;DHT22;13997;48.902;12.472;2023-03-14T10:56:11;358.60;2329.60
26272;DHT22;13997;48.902;12.472;2023-03-14T10:58:41;358.70;2329.60
26272;DHT22;13997;48.902;12.472;2023-03-14T11:03:54;358.60;2329.60
26272;DHT22;13997;48.902;12.472;2023-03-14T11:06:35;358.50;2329.60
26272;DHT22;13997;48.902;12.472;2023-03-14T11:09:11;358.60;2329.60
26272;DHT22;13997;48.902;12.472;2023-03-14T11:11:42;358.70;2329.60
26272;DHT22;13997;48.902;12.472;2023-03-14T11:14:18;358.70;2329.60
26272;DHT22;13997;48.902;12.472;2023-03-14T11:20:35;358.70;2329.60
26272;DHT22;13997;48.902;12.472;2023-03-14T11:30:48;358.60;2329.60
26272;DHT22;13997;48.902;12.472;2023-03-14T11:33:16;358.50;2329.60
26272;DHT22;13997;48.902;12.472;2023-03-14T11:40:54;358.50;2329.60
26272;DHT22;13997;48.902;12.472;2023-03-14T11:43:30;358.50;2329.60
26272;DHT22;13997;48.902;12.472;2023-03-14T11:46:28;358.50;2329.60
26272;DHT22;13997;48.902;12.472;2023-03-14T11:51:41;333.70;2329.60
26272;DHT22;13997;48.902;12.472;2023-03-14T11:57:01;333.30;2329.60
26272;DHT22;13997;48.902;12.472;2023-03-14T12:02:38;333.10;2329.60
26272;DHT22;13997;48.902;12.472;2023-03-14T12:13:11;308.10;2304.00
26272;DHT22;13997;48.902;12.472;2023-03-14T12:15:58;308.10;2304.00
26272;DHT22;13997;48.902;12.472;2023-03-14T12:18:29;308.00;2304.00
26272;DHT22;13997;48.902;12.472;2023-03-14T12:21:04;308.00;2304.00
26272;DHT22;13997;48.902;12.472;2023-03-14T12:23:56;308.00;2304.00
26272;DHT22;13997;48.902;12.472;2023-03-14T12:34:04;308.00;2304.00
26272;DHT22;13997;48.902;12.472;2023-03-14T12:36:56;308.10;2304.00
26272;DHT22;13997;48.902;12.472;2023-03-14T12:39:49;332.90;2329.60
26272;DHT22;13997;48.902;12.472;2023-03-14T12:42:37;333.00;2329.60
26272;DHT22;13997;48.902;12.472;2023-03-14T12:45:23;333.00;2329.60
26272;DHT22;13997;48.902;12.472;2023-03-14T12:48:08;333.10;2329.60
26272;DHT22;13997;48.902;12.472;2023-03-14T12:50:40;333.30;2329.60
26272;DHT22;13997;48.902;12.472;2023-03-14T12:53:33;333.40;2329.60
26272;DHT22;13997;48.902;12.472;2023-03-14T12:59:09;333.60;2329.60
26272;DHT22;13997;48.902;12.472;2023-03-14T13:01:47;358.50;2329.60
26272;DHT22;13997;48.902;12.472;2023-03-14T13:04:13;358.70;2329.60
26272;DHT22;13997;48.902;12.472;2023-03-14T13:06:57;358.70;2329.60
26272;DHT22;13997;48.902;12.472;2023-03-14T13:11:55;358.40;2329.60
26272;DHT22;13997;48.902;12.472;2023-03-14T13:14:22;333.70;2329.60
26272;DHT22;13997;48.902;12.472;2023-03-14T13:16:48;333.50;2329.60
26272;DHT22;13997;48.902;12.472;2023-03-14T13:19:23;333.50;2329.60
26272;DHT22;13997;48.902;12.472;2023-03-14T13:21:50;333.40;2329.60
26272;DHT22;13997;48.902;12.472;2023-03-14T13:24:26;333.40;2329.60
26272;DHT22;13997;48.902;12.472;2023-03-14T13:26:54;333.40;2329.60
26272;DHT22;13997;48.902;12.472;2023-03-14T13:29:25;333.40;2329.60
26272;DHT22;13997;48.902;12.472;2023-03-14T13:32:00;333.30;2329.60
26272;DHT22;13997;48.902;12.472;2023-03-14T13:34:28;333.20;2329.60
26272;DHT22;13997;48.902;12.472;2023-03-14T13:36:54;333.10;2329.60
26272;DHT22;13997;48.902;12.472;2023-03-14T13:39:23;333.10;2329.60
26272;DHT22;13997;48.902;12.472;2023-03-14T13:41:51;333.00;2329.60
26272;DHT22;13997;48.902;12.472;2023-03-14T13:44:32;333.00;2329.60
26272;DHT22;13997;48.902;12.472;2023-03-14T13:47:00;332.90;2329.60
26272;DHT22;13997;48.902;12.472;2023-03-14T13:49:28;332.90;2329.60
26272;DHT22;13997;48.902;12.472;2023-03-14T13:51:56;332.90;2329.60
26272;DHT22;13997;48.902;12.472;2023-03-14T13:54:22;332.80;2329.60
26272;DHT22;13997;48.902;12.472;2023-03-14T13:57:08;332.80;2329.60
26272;DHT22;13997;48.902;12.472;2023-03-14T13:59:34;332.80;2329.60
26272;DHT22;13997;48.902;12.472;2023-03-14T14:02:12;332.80;2329.60
26272;DHT22;13997;48.902;12.472;2023-03-14T14:04:38;332.90;2329.60
26272;DHT22;13997;48.902;12.472;2023-03-14T14:07:13;332.90;2329.60
26272;DHT22;13997;48.902;12.472;2023-03-14T14:09:43;333.00;2329.60
26272;DHT22;13997;48.902;12.472;2023-03-14T14:12:16;333.00;2329.60
26272;DHT22;13997;48.902;12.472;2023-03-14T14:14:58;333.10;2329.60
26272;DHT22;13997;48.902;12.472;2023-03-14T14:17:36;333.10;2329.60
26272;DHT22;13997;48.902;12.472;2023-03-14T14:20:06;333.10;2329.60
26272;DHT22;13997;48.902;12.472;2023-03-14T14:22:32;333.00;2329.60
26272;DHT22;13997;48.902;12.472;2023-03-14T14:24:59;332.80;2329.60
26272;DHT22;13997;48.902;12.472;2023-03-14T14:27:33;307.80;2304.00
26272;DHT22;13997;48.902;12.472;2023-03-14T14:32:43;307.30;2304.00
26272;DHT22;13997;48.902;12.472;2023-03-14T14:35:17;307.20;2304.00
26272;DHT22;13997;48.902;12.472;2023-03-14T14:37:48;282.50;2278.40
26272;DHT22;13997;48.902;12.472;2023-03-14T14:40:25;282.40;2278.40
26272;DHT22;13997;48.902;12.472;2023-03-14T14:42:51;282.30;2278.40
26272;DHT22;13997;48.902;12.472;2023-03-14T14:45:20;282.10;2278.40
26272;DHT22;13997;48.902;12.472;2023-03-14T14:47:51;281.80;2278.40
26272;DHT22;13997;48.902;12.472;2023-03-14T14:52:59;256.70;2252.80
26272;DHT22;13997;48.902;12.472;2023-03-14T14:55:51;256.60;2252.80
26272;DHT22;13997;48.902;12.472;2023-03-14T14:58:27;256.50;2252.80
26272;DHT22;13997;48.902;12.472;2023-03-14T15:03:31;256.40;2252.80
26272;DHT22;13997;48.902;12.472;2023-03-14T15:05:58;256.40;2252.80
26272;DHT22;13997;48.902;12.472;2023-03-14T15:08:27;256.30;2252.80
26272;DHT22;13997;48.902;12.472;2023-03-14T15:10:53;256.20;2252.80
26272;DHT22;13997;48.902;12.472;2023-03-14T15:13:19;256.20;2252.80
26272;DHT22;13997;48.902;12.472;2023-03-14T15:15:45;256.20;2252.80
26272;DHT22;13997;48.902;12.472;2023-03-14T15:18:16;256.20;2252.80
26272;DHT22;13997;48.902;12.472;2023-03-14T15:20:45;256.20;2252.80
26272;DHT22;13997;48.902;12.472;2023-03-14T15:23:13;256.20;2252.80
26272;DHT22;13997;48.902;12.472;2023-03-14T15:25:39;256.20;2252.80
26272;DHT22;13997;48.902;12.472;2023-03-14T15:28:15;256.20;2252.80
26272;DHT22;13997;48.902;12.472;2023-03-14T15:30:41;256.20;2252.80
26272;DHT22;13997;48.902;12.472;2023-03-14T15:33:07;256.20;2252.80
26272;DHT22;13997;48.902;12.472;2023-03-14T15:35:35;256.20;2252.80
26272;DHT22;13997;48.902;12.472;2023-03-14T15:38:01;256.20;2252.80
26272;DHT22;13997;48.902;12.472;2023-03-14T15:40:27;256.10;2252.80
26272;DHT22;13997;48.902;12.472;2023-03-14T15:42:53;256.10;2252.80
26272;DHT22;13997;48.902;12.472;2023-03-14T15:45:18;256.00;2252.80
26272;DHT22;13997;48.902;12.472;2023-03-14T15:47:44;256.00;2252.80
26272;DHT22;13997;48.902;12.472;2023-03-14T15:50:10;256.00;2252.80
26272;DHT22;13997;48.902;12.472;2023-03-14T15:52:36;256.00;2252.80
26272;DHT22;13997;48.902;12.472;2023-03-14T15:55:01;231.30;2252.80
26272;DHT22;13997;48.902;12.472;2023-03-14T15:57:27;231.30;2252.80
26272;DHT22;13997;48.902;12.472;2023-03-14T15:59:53;231.30;2252.80